Terminal Aerodrome Forecast
Issued by NWS

Home | Current Version | Previous Version | Text Only | Print | Product List | Glossary On
Versions: 1 2 3 4 5 6 7 8 9 10 11 12 13 14
000
FTUS46 KMTR 291100
TAFOAK
TAF
KOAK 291127Z 2912/3018 03004KT P6SM FEW200
     FM292100 28005KT P6SM SCT200
     FM292300 31008KT P6SM FEW200
     FM300400 31004KT P6SM SKC
     FM300800 VRB03KT P6SM SCT007=

USA.gov is the U.S. government's official web portal to all federal, state and local government web resources and services.